Time;durP1;ratioP1;P1;durP2;ratioP2;P2;SDS_P1;SDS_P2;PMS_P1;PMS_P2;Temp;Humidity;BMP_temperature;BMP_pressure;BME280_temperature;BME280_humidity;BME280_pressure;Samples;Min_cycle;Max_cycle;Signal;HPM_P1;HPM_P2
2022/08/29 00:02:06;;;;;;;1.02;0.93;;;15.50;60.10;;;;;;4991282;28;20216;-37
2022/08/29 00:04:37;;;;;;;1.38;1.00;;;15.50;60.20;;;;;;4992027;28;20727;-36
2022/08/29 00:07:09;;;;;;;1.25;0.95;;;15.50;60.20;;;;;;4991208;28;20567;-34
2022/08/29 00:09:40;;;;;;;1.30;1.20;;;15.50;60.10;;;;;;4990894;28;20197;-37
2022/08/29 00:12:11;;;;;;;1.55;1.35;;;15.50;60.20;;;;;;4991552;28;20232;-35
2022/08/29 00:14:42;;;;;;;3.22;1.17;;;15.60;60.30;;;;;;4991232;28;20229;-35
2022/08/29 00:17:12;;;;;;;1.23;1.00;;;15.60;60.20;;;;;;4991057;28;20663;-35
2022/08/29 00:19:43;;;;;;;2.10;1.00;;;15.60;60.20;;;;;;4991676;28;20197;-40
2022/08/29 00:22:15;;;;;;;1.33;0.82;;;15.70;60.30;;;;;;4990751;28;20194;-36
2022/08/29 00:24:46;;;;;;;1.85;1.10;;;15.70;60.20;;;;;;4990649;28;20213;-35
2022/08/29 00:27:17;;;;;;;1.10;1.00;;;15.70;60.20;;;;;;4991830;28;20595;-35
2022/08/29 00:29:48;;;;;;;1.98;0.90;;;15.70;60.20;;;;;;4991423;28;20204;-35
2022/08/29 00:32:19;;;;;;;1.30;1.20;;;15.80;60.20;;;;;;4990984;28;20727;-35
2022/08/29 00:34:49;;;;;;;1.65;0.90;;;15.80;60.20;;;;;;5000503;23;20221;-34
2022/08/29 00:37:22;;;;;;;2.50;1.42;;;15.80;60.20;;;;;;4990246;28;20202;-36
2022/08/29 00:39:53;;;;;;;1.80;1.10;;;15.80;60.20;;;;;;4969715;28;20198;-36
2022/08/29 00:42:23;;;;;;;1.38;1.10;;;15.90;60.20;;;;;;4971117;28;20198;-34
2022/08/29 00:44:54;;;;;;;1.95;1.08;;;15.90;61.10;;;;;;4970730;28;20583;-38
2022/08/29 00:47:32;;;;;;;1.10;1.00;;;16.00;60.50;;;;;;4971522;28;20198;-35
2022/08/29 00:50:06;;;;;;;1.48;1.00;;;16.00;60.40;;;;;;4970784;28;20202;-35
2022/08/29 00:52:41;;;;;;;1.65;1.08;;;16.00;60.30;;;;;;4971403;28;20288;-33
2022/08/29 00:55:15;;;;;;;1.83;1.27;;;16.10;60.30;;;;;;4971348;28;20218;-34
2022/08/29 00:57:49;;;;;;;2.67;1.30;;;16.10;60.20;;;;;;4971556;28;20202;-37
2022/08/29 01:00:20;;;;;;;1.30;1.20;;;16.10;60.20;;;;;;4971457;28;20205;-35
2022/08/29 01:02:53;;;;;;;1.02;0.93;;;16.10;60.10;;;;;;4971058;28;20344;-35
2022/08/29 01:05:24;;;;;;;1.15;1.00;;;16.20;60.10;;;;;;4970896;28;20222;-35
2022/08/29 01:07:57;;;;;;;2.20;1.00;;;16.20;60.00;;;;;;4971086;28;20202;-36
2022/08/29 01:13:15;;;;;;;2.00;0.90;;;16.30;60.00;;;;;;4971368;28;20230;-35
2022/08/29 01:15:46;;;;;;;1.67;1.10;;;16.30;59.80;;;;;;5033833;23;20240;-36
2022/08/29 01:18:19;;;;;;;1.48;1.00;;;16.30;59.70;;;;;;4990647;28;20601;-37
2022/08/29 01:21:02;;;;;;;2.50;1.17;;;16.30;59.70;;;;;;4971634;28;20201;-35
2022/08/29 01:23:41;;;;;;;2.30;1.38;;;16.40;59.70;;;;;;4972834;28;20198;-38
2022/08/29 01:26:15;;;;;;;3.15;1.20;;;16.40;59.70;;;;;;4982198;28;20677;-35
2022/08/29 01:28:49;;;;;;;2.58;1.20;;;16.40;59.60;;;;;;4971919;28;20194;-40
2022/08/29 01:31:23;;;;;;;2.15;1.17;;;16.40;59.60;;;;;;4993145;28;20189;-35
2022/08/29 01:33:56;;;;;;;1.95;1.00;;;16.40;59.50;;;;;;4994524;28;20964;-38
2022/08/29 02:35:53;;;;;;;2.90;1.30;;;16.90;58.20;;;;;;5422817;23;20224;-36
2022/08/29 02:38:24;;;;;;;2.67;1.10;;;16.90;58.20;;;;;;4904572;29;20635;-36
2022/08/29 02:40:55;;;;;;;1.85;0.80;;;16.90;58.00;;;;;;4914906;29;20204;-39
2022/08/29 02:43:26;;;;;;;2.65;1.25;;;16.90;58.10;;;;;;4914165;29;20208;-35
2022/08/29 02:45:57;;;;;;;1.85;1.30;;;16.90;58.00;;;;;;4896718;29;20193;-35
2022/08/29 02:48:28;;;;;;;3.33;1.17;;;16.90;58.00;;;;;;4897856;29;20205;-36
2022/08/29 02:51:01;;;;;;;1.45;0.82;;;17.00;57.90;;;;;;4897928;29;20385;-35
2022/08/29 02:53:32;;;;;;;1.38;0.73;;;17.00;57.80;;;;;;4897543;29;20228;-36
2022/08/29 02:56:03;;;;;;;2.13;0.98;;;17.00;57.80;;;;;;4902605;29;20208;-36
2022/08/29 02:58:34;;;;;;;2.28;0.98;;;17.00;57.80;;;;;;4897170;29;20205;-36
2022/08/29 03:01:05;;;;;;;2.95;1.42;;;17.10;57.60;;;;;;4897085;29;20245;-36
2022/08/29 03:03:35;;;;;;;2.42;0.98;;;17.10;57.50;;;;;;4896344;29;20268;-36
2022/08/29 03:06:08;;;;;;;3.05;1.20;;;17.10;57.40;;;;;;4896694;29;20273;-36
2022/08/29 03:08:39;;;;;;;1.77;1.00;;;17.10;57.30;;;;;;4901370;29;20211;-35
2022/08/29 03:11:10;;;;;;;1.85;0.82;;;17.10;57.30;;;;;;4888927;29;20558;-36
2022/08/29 03:13:41;;;;;;;1.60;0.75;;;17.20;57.30;;;;;;4897112;29;20320;-36
2022/08/29 03:16:12;;;;;;;1.88;0.90;;;17.20;57.40;;;;;;4901691;29;20197;-35
2022/08/29 03:18:43;;;;;;;2.33;0.93;;;17.20;57.40;;;;;;4897393;29;20201;-35
2022/08/29 03:21:21;;;;;;;2.83;1.00;;;17.20;57.20;;;;;;4896928;29;20679;-36
2022/08/29 03:23:52;;;;;;;0.75;0.70;;;17.30;57.20;;;;;;4896418;29;20709;-36
2022/08/29 03:26:23;;;;;;;2.38;0.88;;;17.30;57.20;;;;;;4897231;29;20237;-35
2022/08/29 03:28:53;;;;;;;3.33;0.93;;;17.30;57.10;;;;;;4896874;29;20197;-39
2022/08/29 03:31:24;;;;;;;2.00;1.05;;;17.30;57.00;;;;;;4896979;29;20201;-36
2022/08/29 03:33:55;;;;;;;2.72;0.85;;;17.30;57.00;;;;;;4896665;29;20259;-37
2022/08/29 04:36:01;;;;;;;1.65;1.30;;;17.50;55.70;;;;;;5400119;23;20567;-39
2022/08/29 04:38:32;;;;;;;2.20;1.73;;;17.60;55.70;;;;;;4896086;29;20216;-44
2022/08/29 04:41:05;;;;;;;2.78;1.80;;;17.50;55.70;;;;;;4895610;29;20200;-46
2022/08/29 04:43:36;;;;;;;3.33;1.80;;;17.50;55.70;;;;;;4895335;29;20229;-35
2022/08/29 04:46:07;;;;;;;5.13;2.47;;;17.60;55.80;;;;;;4895473;29;20197;-44
2022/08/29 04:48:38;;;;;;;3.80;2.13;;;17.60;55.60;;;;;;4895615;29;20197;-47
2022/08/29 04:51:10;;;;;;;2.75;2.13;;;17.50;55.60;;;;;;4894886;29;20661;-38
2022/08/29 04:53:41;;;;;;;3.00;2.20;;;17.50;55.70;;;;;;4885530;29;20236;-41
2022/08/29 04:56:14;;;;;;;3.55;2.40;;;17.60;55.60;;;;;;4901621;29;20196;-48
2022/08/29 04:58:46;;;;;;;2.72;2.10;;;17.50;55.60;;;;;;4893944;29;20212;-36
2022/08/29 05:01:18;;;;;;;3.33;2.30;;;17.50;55.40;;;;;;4895246;29;20220;-34
2022/08/29 05:03:50;;;;;;;3.63;2.05;;;17.50;55.50;;;;;;4894169;29;20221;-35
2022/08/29 05:06:24;;;;;;;3.33;2.17;;;17.60;55.50;;;;;;4895143;29;20204;-35
2022/08/29 05:08:55;;;;;;;4.63;2.03;;;17.50;55.30;;;;;;4894780;29;20217;-38
2022/08/29 05:11:26;;;;;;;3.67;2.28;;;17.50;55.20;;;;;;4895107;29;20193;-46
2022/08/29 05:13:57;;;;;;;3.60;2.58;;;17.50;55.30;;;;;;4893867;29;20232;-49
2022/08/29 05:16:28;;;;;;;3.40;2.17;;;17.60;55.40;;;;;;4894387;29;20200;-48
2022/08/29 05:19:00;;;;;;;5.40;2.50;;;17.50;55.40;;;;;;4894987;29;20284;-48
2022/08/29 05:21:36;;;;;;;5.10;2.08;;;17.50;55.90;;;;;;4901619;29;20220;-35
2022/08/29 05:24:08;;;;;;;3.70;2.15;;;17.50;55.40;;;;;;4914065;29;20227;-46
2022/08/29 05:26:40;;;;;;;3.38;2.20;;;17.50;55.30;;;;;;4912822;29;20546;-37
2022/08/29 05:29:12;;;;;;;2.63;2.10;;;17.50;55.30;;;;;;4907334;29;20207;-35
2022/08/29 05:31:44;;;;;;;3.28;2.05;;;17.50;55.30;;;;;;4894787;29;20201;-47
2022/08/29 05:34:15;;;;;;;2.97;1.80;;;17.50;55.30;;;;;;4895064;29;20664;-36
2022/08/29 05:36:47;;;;;;;4.15;2.13;;;17.40;55.40;;;;;;4894990;29;20211;-36
2022/08/29 05:39:18;;;;;;;3.83;2.30;;;17.50;55.40;;;;;;4897510;29;20197;-42
2022/08/29 05:41:49;;;;;;;2.55;1.90;;;17.40;55.30;;;;;;4902633;29;20200;-44
2022/08/29 05:44:20;;;;;;;3.92;2.10;;;17.40;55.30;;;;;;4913423;29;20227;-49
2022/08/29 05:46:50;;;;;;;4.53;2.20;;;17.40;55.30;;;;;;4913450;29;20200;-43
2022/08/29 05:49:22;;;;;;;2.70;2.20;;;17.40;55.30;;;;;;4913620;29;20203;-48
2022/08/29 05:51:59;;;;;;;3.45;2.10;;;17.30;55.30;;;;;;4913319;29;20676;-44
2022/08/29 05:54:30;;;;;;;3.55;2.30;;;17.40;55.40;;;;;;4913368;29;20319;-37
2022/08/29 05:57:00;;;;;;;2.95;2.20;;;17.30;56.00;;;;;;4913127;29;20211;-48
2022/08/29 05:59:31;;;;;;;5.50;2.63;;;17.30;55.40;;;;;;4913908;29;20204;-42
2022/08/29 06:02:02;;;;;;;2.17;1.95;;;17.30;55.40;;;;;;4913817;29;20277;-48
2022/08/29 06:04:32;;;;;;;3.92;2.22;;;17.30;55.40;;;;;;4913078;29;20275;-48
2022/08/29 06:07:06;;;;;;;2.10;1.90;;;17.30;55.50;;;;;;4912691;29;20204;-46
2022/08/29 06:09:37;;;;;;;3.03;2.03;;;17.20;55.50;;;;;;4896773;29;20811;-42
2022/08/29 06:12:09;;;;;;;2.95;2.08;;;17.30;55.60;;;;;;4895179;29;20208;-54
2022/08/29 06:14:40;;;;;;;3.10;2.08;;;17.30;55.60;;;;;;4894461;29;20237;-51
2022/08/29 06:17:11;;;;;;;2.92;1.80;;;17.20;55.50;;;;;;4905843;29;20684;-45
2022/08/29 06:19:42;;;;;;;2.60;1.77;;;17.20;55.90;;;;;;4917058;29;20209;-47
2022/08/29 06:22:15;;;;;;;2.20;2.00;;;17.20;56.00;;;;;;4906861;29;20201;-43
2022/08/29 06:24:46;;;;;;;4.97;2.30;;;17.20;55.90;;;;;;4896327;29;20295;-54
2022/08/29 06:27:18;;;;;;;2.45;1.88;;;17.20;55.80;;;;;;4888143;29;20836;-39
2022/08/29 06:29:49;;;;;;;2.92;1.98;;;17.20;55.80;;;;;;4898642;29;20547;-43
2022/08/29 06:32:20;;;;;;;4.93;2.13;;;17.20;55.80;;;;;;4897881;29;20216;-41
2022/08/29 06:34:50;;;;;;;3.17;1.83;;;17.20;55.80;;;;;;4898448;29;20225;-45
2022/08/29 06:37:23;;;;;;;2.20;1.98;;;17.10;55.80;;;;;;4898192;29;20197;-44
2022/08/29 06:39:54;;;;;;;4.50;2.22;;;17.10;55.80;;;;;;4878702;29;20201;-35
2022/08/29 06:42:25;;;;;;;3.22;1.95;;;17.10;56.00;;;;;;4888360;29;20224;-41
2022/08/29 06:44:56;;;;;;;3.72;2.17;;;17.10;55.80;;;;;;4897848;29;20221;-41
2022/08/29 06:47:27;;;;;;;2.08;1.88;;;17.10;55.80;;;;;;4898207;29;20594;-36
2022/08/29 06:49:57;;;;;;;2.70;2.10;;;17.00;55.70;;;;;;4897966;29;20197;-45
2022/08/29 06:52:30;;;;;;;4.22;2.40;;;17.00;55.70;;;;;;4898149;29;20661;-44
2022/08/29 06:55:01;;;;;;;3.35;2.33;;;17.00;55.70;;;;;;4897879;29;20306;-44
2022/08/29 06:57:31;;;;;;;4.22;2.42;;;16.90;55.60;;;;;;4897647;29;20209;-44
2022/08/29 07:00:03;;;;;;;3.92;2.70;;;16.90;55.60;;;;;;4892101;29;20198;-43
2022/08/29 07:02:33;;;;;;;4.38;2.90;;;16.90;55.70;;;;;;4888494;29;20724;-44
2022/08/29 07:05:04;;;;;;;3.28;2.90;;;16.90;55.60;;;;;;4896731;29;20590;-49
2022/08/29 07:07:37;;;;;;;4.22;2.83;;;16.80;55.60;;;;;;4897679;29;20201;-45
2022/08/29 07:10:08;;;;;;;5.03;3.25;;;16.80;55.60;;;;;;4897666;29;20205;-34
2022/08/29 07:12:39;;;;;;;4.13;2.88;;;16.80;55.60;;;;;;4897212;29;20668;-40
2022/08/29 07:15:10;;;;;;;6.70;3.30;;;16.80;55.60;;;;;;4897238;29;20224;-38
2022/08/29 07:17:41;;;;;;;4.50;3.05;;;16.70;55.60;;;;;;4897248;29;20213;-34
2022/08/29 07:20:12;;;;;;;4.35;3.10;;;16.70;55.60;;;;;;4897180;29;20387;-39
2022/08/29 07:22:49;;;;;;;4.65;2.72;;;16.70;55.60;;;;;;4896973;29;20207;-35
2022/08/29 07:25:22;;;;;;;3.28;2.67;;;16.60;55.60;;;;;;4897059;29;20284;-34
2022/08/29 07:27:52;;;;;;;3.83;2.90;;;16.60;55.60;;;;;;4904673;29;20200;-35
2022/08/29 07:30:23;;;;;;;4.13;3.40;;;16.60;55.60;;;;;;4914774;29;20200;-36
2022/08/29 07:32:54;;;;;;;3.95;2.78;;;16.60;55.60;;;;;;4914981;29;20227;-36
2022/08/29 07:38:06;;;;;;;4.45;2.80;;;16.50;55.50;;;;;;5514429;23;20807;-39
2022/08/29 07:40:41;;;;;;;4.82;3.25;;;16.50;55.60;;;;;;4933034;28;20195;-41
2022/08/29 07:43:16;;;;;;;5.97;2.60;;;16.50;55.60;;;;;;4930644;28;20704;-47
2022/08/29 07:45:55;;;;;;;4.80;2.97;;;16.40;55.60;;;;;;4916454;29;20525;-43
2022/08/29 07:48:31;;;;;;;3.83;3.00;;;16.40;55.60;;;;;;4914909;29;20623;-46
2022/08/29 07:51:06;;;;;;;4.60;2.80;;;16.40;55.60;;;;;;4914965;29;20595;-41
2022/08/29 07:53:44;;;;;;;4.53;2.67;;;16.30;55.70;;;;;;4914774;29;20618;-41
2022/08/29 07:56:25;;;;;;;4.15;2.90;;;16.30;55.70;;;;;;4914376;29;20530;-46
2022/08/29 07:59:02;;;;;;;3.20;2.40;;;16.30;55.80;;;;;;4915082;29;20207;-39
2022/08/29 08:01:38;;;;;;;3.95;2.72;;;16.30;55.70;;;;;;4914879;29;20675;-43
2022/08/29 08:04:12;;;;;;;3.40;2.80;;;16.20;55.70;;;;;;4914114;29;20579;-36
2022/08/29 08:06:50;;;;;;;4.68;2.80;;;16.20;55.70;;;;;;4913953;29;20224;-46
2022/08/29 08:09:24;;;;;;;3.83;2.65;;;16.20;55.70;;;;;;4912478;29;20196;-40
2022/08/29 08:11:55;;;;;;;4.57;2.65;;;16.20;55.70;;;;;;4914168;29;20207;-35
2022/08/29 08:14:26;;;;;;;4.18;2.40;;;16.10;55.80;;;;;;4913936;29;20232;-36
2022/08/29 08:16:56;;;;;;;5.28;3.00;;;16.10;55.80;;;;;;4914243;29;20207;-42
2022/08/29 08:19:27;;;;;;;3.97;2.50;;;16.10;55.90;;;;;;4913810;29;20204;-35
2022/08/29 08:21:58;;;;;;;4.45;2.60;;;16.00;55.80;;;;;;4913736;29;20192;-35
2022/08/29 08:24:30;;;;;;;4.95;2.92;;;16.00;55.90;;;;;;4904830;29;20277;-37
2022/08/29 08:27:01;;;;;;;3.70;2.78;;;15.90;55.80;;;;;;4895247;29;20196;-35
2022/08/29 08:29:32;;;;;;;3.15;2.58;;;16.00;55.90;;;;;;4894647;29;20261;-35
2022/08/29 08:32:02;;;;;;;3.75;2.58;;;15.90;55.80;;;;;;4895048;29;20201;-36
2022/08/29 08:34:33;;;;;;;3.38;2.53;;;15.90;55.80;;;;;;4894735;29;20755;-37
2022/08/29 08:37:07;;;;;;;3.75;2.90;;;15.90;55.80;;;;;;4907023;23;20232;-36
2022/08/29 08:39:40;;;;;;;3.88;2.50;;;15.90;55.80;;;;;;4894199;29;20252;-37
2022/08/29 08:42:22;;;;;;;4.45;2.85;;;15.90;55.80;;;;;;4895302;29;20192;-43
2022/08/29 08:45:07;;;;;;;3.83;2.63;;;15.90;55.80;;;;;;4894625;29;20225;-37
2022/08/29 08:47:40;;;;;;;3.08;2.80;;;15.80;55.90;;;;;;4894804;29;20204;-39
2022/08/29 08:50:18;;;;;;;4.10;2.70;;;15.80;55.90;;;;;;4894543;29;20615;-47
2022/08/29 08:52:54;;;;;;;4.15;2.75;;;15.80;56.00;;;;;;4894674;29;20261;-52
2022/08/29 08:55:36;;;;;;;5.40;3.03;;;15.70;56.00;;;;;;4893977;29;20239;-38
2022/08/29 08:58:15;;;;;;;5.10;2.75;;;15.80;56.00;;;;;;4894677;29;20205;-40
2022/08/29 09:00:49;;;;;;;3.10;2.47;;;15.70;56.00;;;;;;4891932;29;20200;-50
2022/08/29 09:03:50;;;;;;;4.15;2.80;;;15.70;56.00;;;;;;4894889;29;20201;-38
2022/08/29 09:06:34;;;;;;;4.70;2.78;;;15.70;56.10;;;;;;4894369;29;20676;-38
2022/08/29 09:09:19;;;;;;;3.38;2.80;;;15.70;56.60;;;;;;4893936;29;20216;-50
2022/08/29 09:12:00;;;;;;;3.78;3.13;;;15.60;55.90;;;;;;4894240;29;20201;-41
2022/08/29 09:14:43;;;;;;;4.07;3.13;;;15.60;55.90;;;;;;4893574;29;20613;-40
2022/08/29 09:17:21;;;;;;;3.80;2.80;;;15.60;56.00;;;;;;4893376;29;20565;-38
2022/08/29 09:19:53;;;;;;;4.10;3.10;;;15.60;56.00;;;;;;4893965;29;20604;-40
2022/08/29 09:22:27;;;;;;;5.47;3.28;;;15.50;56.00;;;;;;4893909;29;20200;-60
2022/08/29 09:25:02;;;;;;;15.05;9.50;;;15.50;56.30;;;;;;4893536;29;20224;-36
2022/08/29 09:27:36;;;;;;;12.50;7.30;;;15.50;54.70;;;;;;4894122;29;20692;-39
2022/08/29 09:30:11;;;;;;;10.20;7.63;;;15.40;54.40;;;;;;4894179;29;20200;-36
2022/08/29 09:33:02;;;;;;;10.02;6.55;;;15.40;54.50;;;;;;4888455;29;20205;-41
2022/08/29 09:35:38;;;;;;;10.43;6.75;;;15.40;54.80;;;;;;4878137;29;20637;-48
2022/08/29 09:38:11;;;;;;;8.63;5.95;;;15.30;54.80;;;;;;4890327;29;20201;-35
2022/08/29 09:40:49;;;;;;;9.05;6.05;;;15.30;54.80;;;;;;4894863;29;20209;-57
2022/08/29 09:43:25;;;;;;;8.75;6.20;;;15.30;54.90;;;;;;4893718;29;20580;-52
2022/08/29 09:46:17;;;;;;;8.15;5.70;;;15.30;54.90;;;;;;4895297;29;20205;-43
2022/08/29 09:48:49;;;;;;;7.63;5.93;;;15.30;55.10;;;;;;4876152;29;20705;-48
2022/08/29 09:51:29;;;;;;;9.95;6.53;;;15.30;55.30;;;;;;4894066;29;20223;-44
2022/08/29 09:54:16;;;;;;;9.55;5.65;;;15.20;55.30;;;;;;4897787;29;20239;-53
2022/08/29 09:56:56;;;;;;;7.82;5.68;;;15.20;55.40;;;;;;4899188;29;20284;-38
2022/08/29 09:59:32;;;;;;;6.85;5.32;;;15.20;55.40;;;;;;4898122;29;20204;-45
2022/08/29 10:02:28;;;;;;;8.25;5.10;;;15.20;55.50;;;;;;4898015;29;20193;-45
2022/08/29 10:05:01;;;;;;;7.38;5.38;;;15.10;55.50;;;;;;4898076;29;20224;-51
2022/08/29 10:07:34;;;;;;;6.90;5.35;;;15.10;55.60;;;;;;4898274;29;20704;-36
2022/08/29 10:10:13;;;;;;;6.28;4.97;;;15.10;55.60;;;;;;4898636;29;20211;-35
2022/08/29 10:12:53;;;;;;;8.25;5.20;;;15.10;55.60;;;;;;4897819;29;20533;-46
2022/08/29 10:15:28;;;;;;;6.55;5.07;;;15.10;55.60;;;;;;4898410;29;20232;-50
2022/08/29 10:18:23;;;;;;;6.15;4.88;;;15.10;55.60;;;;;;4897878;29;20192;-50
2022/08/29 10:21:01;;;;;;;7.45;4.72;;;15.10;55.60;;;;;;4897994;29;20653;-50
2022/08/29 10:23:38;;;;;;;7.78;5.03;;;15.10;55.60;;;;;;4897375;29;20197;-56
2022/08/29 10:26:19;;;;;;;7.65;5.35;;;15.00;55.60;;;;;;4898189;29;20200;-54
2022/08/29 10:28:57;;;;;;;5.63;4.70;;;15.00;55.70;;;;;;4879450;29;20208;-54
2022/08/29 10:31:37;;;;;;;6.25;4.72;;;14.90;55.60;;;;;;4878612;29;20205;-41
2022/08/29 10:34:21;;;;;;;5.50;4.72;;;14.90;55.70;;;;;;4884774;29;20260;-53
2022/08/29 10:36:59;;;;;;;6.43;4.57;;;14.90;55.70;;;;;;4913612;23;20587;-48
2022/08/29 10:39:40;;;;;;;7.60;4.90;;;14.90;55.70;;;;;;4897148;29;20216;-52
2022/08/29 10:42:15;;;;;;;8.18;4.63;;;14.90;55.70;;;;;;4897751;29;20193;-48
2022/08/29 10:44:58;;;;;;;6.65;4.80;;;14.90;55.70;;;;;;4897458;29;20220;-48
2022/08/29 10:47:34;;;;;;;6.22;4.63;;;14.80;55.70;;;;;;4897853;29;20205;-49
2022/08/29 10:50:24;;;;;;;7.00;4.90;;;14.80;55.70;;;;;;4897531;29;20197;-41
2022/08/29 10:53:04;;;;;;;6.78;4.72;;;14.80;55.70;;;;;;4888349;29;20202;-42
2022/08/29 10:55:49;;;;;;;7.15;4.28;;;14.80;55.80;;;;;;4878687;29;20583;-45
2022/08/29 10:58:38;;;;;;;6.53;4.50;;;14.80;55.80;;;;;;4891999;29;20592;-49
2022/08/29 11:01:16;;;;;;;6.45;4.72;;;14.80;55.80;;;;;;4896904;29;20575;-42
2022/08/29 11:03:57;;;;;;;6.53;4.40;;;14.70;55.80;;;;;;4897245;29;20252;-49
2022/08/29 11:06:31;;;;;;;6.13;4.93;;;14.70;55.80;;;;;;4897368;29;20252;-51
2022/08/29 11:09:09;;;;;;;6.80;5.13;;;14.70;55.80;;;;;;4896988;29;20289;-44
2022/08/29 11:11:43;;;;;;;7.57;4.75;;;14.70;55.80;;;;;;4897758;29;20201;-48
2022/08/29 11:14:22;;;;;;;5.95;4.80;;;14.60;55.80;;;;;;4896940;29;20805;-47
2022/08/29 11:16:55;;;;;;;5.63;4.80;;;14.60;56.00;;;;;;4895885;29;20868;-42
2022/08/29 11:19:32;;;;;;;7.35;4.55;;;14.60;55.90;;;;;;4896548;29;20242;-52
2022/08/29 11:22:06;;;;;;;5.57;4.07;;;14.60;55.80;;;;;;4896189;29;20987;-48
2022/08/29 11:24:38;;;;;;;4.78;3.90;;;14.60;55.90;;;;;;4896177;29;20236;-52
2022/08/29 11:27:17;;;;;;;5.30;4.25;;;14.60;55.90;;;;;;4896514;29;20200;-45
2022/08/29 11:29:53;;;;;;;5.90;4.75;;;14.60;55.90;;;;;;4896262;29;20201;-41
2022/08/29 11:32:33;;;;;;;5.75;4.00;;;14.50;55.80;;;;;;4896691;29;20895;-51
2022/08/29 11:38:26;;;;;;;5.93;3.80;;;14.50;55.80;;;;;;4894244;29;20221;-42
2022/08/29 11:41:29;;;;;;;5.55;4.35;;;14.50;55.80;;;;;;4895800;29;20676;-34
2022/08/29 11:44:13;;;;;;;5.40;4.45;;;14.50;55.80;;;;;;4896891;29;20216;-35
2022/08/29 11:46:47;;;;;;;4.70;4.22;;;14.50;55.80;;;;;;4895132;29;20208;-47
2022/08/29 11:49:38;;;;;;;5.32;3.92;;;14.50;55.80;;;;;;4896728;29;20197;-55
2022/08/29 11:52:32;;;;;;;6.03;4.32;;;14.40;55.80;;;;;;4896081;29;20672;-38
2022/08/29 11:55:32;;;;;;;5.03;3.70;;;14.40;55.90;;;;;;4890693;29;20237;-35
2022/08/29 11:58:43;;;;;;;3.88;3.45;;;14.40;55.80;;;;;;4896457;29;20220;-43
2022/08/29 12:01:35;;;;;;;5.57;3.97;;;14.40;55.90;;;;;;4863246;29;20197;-39
2022/08/29 12:04:07;;;;;;;6.85;3.90;;;14.30;55.80;;;;;;4895070;29;20224;-42
2022/08/29 12:07:02;;;;;;;6.22;3.58;;;14.40;55.90;;;;;;4895068;29;20203;-58
2022/08/29 12:09:53;;;;;;;4.97;3.90;;;14.40;56.00;;;;;;4890312;29;20231;-42
2022/08/29 12:12:47;;;;;;;4.47;3.95;;;14.30;55.90;;;;;;4894683;29;20567;-46
2022/08/29 12:15:55;;;;;;;4.55;3.10;;;14.30;55.90;;;;;;4894966;29;20236;-44
2022/08/29 12:18:53;;;;;;;5.65;3.80;;;14.30;55.90;;;;;;4895123;29;20299;-48
2022/08/29 12:24:43;;;;;;;4.72;4.07;;;14.20;55.90;;;;;;4866199;29;20232;-43
2022/08/29 12:27:42;;;;;;;3.90;3.45;;;14.20;56.00;;;;;;4894328;29;20197;-38
2022/08/29 12:30:15;;;;;;;4.25;3.20;;;14.20;55.90;;;;;;4894918;29;20201;-35
2022/08/29 12:32:58;;;;;;;3.95;3.30;;;14.20;55.90;;;;;;4894991;29;20677;-36
2022/08/29 12:35:59;;;;;;;4.40;3.25;;;14.20;56.00;;;;;;4894976;29;20240;-43
2022/08/29 12:38:37;;;;;;;5.65;4.07;;;14.20;56.00;;;;;;4894405;29;20771;-42
2022/08/29 12:41:25;;;;;;;4.90;3.85;;;14.20;56.00;;;;;;4893880;29;20203;-47
2022/08/29 12:43:59;;;;;;;5.47;3.13;;;14.20;56.00;;;;;;4892124;29;20241;-43
2022/08/29 12:46:35;;;;;;;5.78;4.00;;;14.20;56.00;;;;;;4894651;29;20874;-44
2022/08/29 12:49:17;;;;;;;5.50;3.25;;;14.20;56.00;;;;;;4890987;29;20199;-41
2022/08/29 12:51:55;;;;;;;4.55;3.00;;;14.20;56.00;;;;;;4894228;29;20211;-39
2022/08/29 12:54:36;;;;;;;4.55;3.38;;;14.10;56.00;;;;;;4894110;29;20234;-44
2022/08/29 12:57:09;;;;;;;4.30;3.40;;;14.10;56.00;;;;;;4893792;29;20565;-46
2022/08/29 12:59:47;;;;;;;4.55;3.10;;;14.10;56.00;;;;;;4894220;29;20209;-39
2022/08/29 13:02:29;;;;;;;4.63;3.20;;;14.10;56.00;;;;;;4893881;29;20203;-43
2022/08/29 13:05:00;;;;;;;4.05;3.33;;;14.10;56.00;;;;;;4894590;29;20232;-45
2022/08/29 13:07:31;;;;;;;4.28;3.20;;;14.10;56.00;;;;;;4894019;29;20208;-46
2022/08/29 13:10:03;;;;;;;3.15;2.85;;;14.10;56.00;;;;;;4894187;29;20201;-40
2022/08/29 13:12:36;;;;;;;3.72;2.83;;;14.10;56.00;;;;;;4894008;29;20427;-38
2022/08/29 13:15:09;;;;;;;3.90;3.25;;;14.10;56.00;;;;;;4894236;29;20242;-37
2022/08/29 13:17:44;;;;;;;4.95;3.05;;;14.00;56.00;;;;;;4894311;29;20197;-51
2022/08/29 13:20:49;;;;;;;3.33;3.03;;;14.10;56.10;;;;;;4894379;29;20570;-48
2022/08/29 13:23:28;;;;;;;4.60;2.83;;;14.00;56.00;;;;;;4893818;29;20653;-42
2022/08/29 13:26:02;;;;;;;3.85;3.13;;;14.00;55.90;;;;;;4893471;29;20562;-49
2022/08/29 13:28:39;;;;;;;3.88;3.00;;;14.00;55.90;;;;;;4893959;29;20200;-42
2022/08/29 13:31:30;;;;;;;4.15;2.78;;;14.00;56.00;;;;;;4894083;29;20208;-39
2022/08/29 13:34:23;;;;;;;4.70;3.10;;;14.00;56.30;;;;;;4893603;29;20229;-40
2022/08/29 13:37:05;;;;;;;3.15;2.78;;;14.00;56.00;;;;;;4894041;29;20213;-41
2022/08/29 13:39:42;;;;;;;3.47;2.58;;;14.00;56.00;;;;;;4924615;23;20230;-38
2022/08/29 13:42:22;;;;;;;4.15;2.90;;;14.00;56.00;;;;;;4931514;29;20222;-37
2022/08/29 13:45:21;;;;;;;4.38;3.10;;;14.00;56.00;;;;;;4903016;29;20696;-33
2022/08/29 13:48:13;;;;;;;3.85;2.88;;;14.00;56.10;;;;;;4912456;29;20204;-40
2022/08/29 13:50:46;;;;;;;2.80;2.50;;;13.90;56.00;;;;;;4912552;29;20615;-42
2022/08/29 13:53:16;;;;;;;3.03;2.60;;;14.00;56.00;;;;;;4912480;29;20213;-43
2022/08/29 13:55:47;;;;;;;3.88;2.78;;;13.90;56.00;;;;;;4912274;29;20589;-44
2022/08/29 13:58:19;;;;;;;3.80;2.97;;;13.90;56.00;;;;;;4911784;29;20211;-40
2022/08/29 14:00:50;;;;;;;3.53;2.70;;;13.90;56.10;;;;;;4912898;29;20219;-42
2022/08/29 14:03:21;;;;;;;4.03;2.97;;;13.90;56.00;;;;;;4912510;29;20248;-41
2022/08/29 14:05:55;;;;;;;3.05;2.75;;;13.90;56.10;;;;;;4913030;29;20201;-41
2022/08/29 14:08:26;;;;;;;3.88;2.30;;;13.80;56.00;;;;;;4912680;29;20208;-46
2022/08/29 14:10:57;;;;;;;3.38;2.47;;;13.90;56.10;;;;;;4912773;29;20211;-33
2022/08/29 14:13:28;;;;;;;2.80;2.33;;;13.90;56.00;;;;;;4903423;29;20236;-36
2022/08/29 14:16:00;;;;;;;2.97;2.50;;;13.90;56.10;;;;;;4893626;29;20225;-33
2022/08/29 14:18:30;;;;;;;2.53;2.33;;;13.80;56.00;;;;;;4893123;29;20204;-33
2022/08/29 14:21:03;;;;;;;3.33;2.47;;;13.80;56.00;;;;;;4893297;29;20201;-38
2022/08/29 14:23:34;;;;;;;3.90;2.47;;;13.80;56.00;;;;;;4893053;29;20204;-34
2022/08/29 14:26:04;;;;;;;2.97;2.40;;;13.80;56.00;;;;;;4893488;29;20223;-34
2022/08/29 14:28:35;;;;;;;2.50;2.30;;;13.80;56.00;;;;;;4901355;29;20200;-33
2022/08/29 14:31:06;;;;;;;2.72;2.30;;;13.80;56.00;;;;;;4912577;29;20196;-42
2022/08/29 14:33:37;;;;;;;3.20;2.45;;;13.70;55.90;;;;;;4912092;29;20220;-34
2022/08/29 14:36:10;;;;;;;2.33;2.13;;;13.80;56.00;;;;;;4902194;29;20228;-42
2022/08/29 14:38:41;;;;;;;3.33;2.42;;;13.80;56.00;;;;;;4923195;23;20231;-34
2022/08/29 14:41:11;;;;;;;2.97;2.40;;;13.70;56.00;;;;;;4915311;29;20200;-36
2022/08/29 14:43:42;;;;;;;2.15;1.95;;;13.70;56.00;;;;;;4911401;29;20247;-46
2022/08/29 14:46:13;;;;;;;2.90;2.22;;;13.70;56.00;;;;;;4896881;29;20212;-46
2022/08/29 14:48:43;;;;;;;2.53;2.17;;;13.70;56.00;;;;;;4896782;29;20654;-40
2022/08/29 14:51:16;;;;;;;3.53;2.83;;;13.70;56.00;;;;;;4883646;29;20198;-41
2022/08/29 14:53:47;;;;;;;4.28;2.30;;;13.70;56.00;;;;;;4877677;29;20229;-35
2022/08/29 14:56:18;;;;;;;2.40;2.20;;;13.70;56.00;;;;;;4877722;29;20225;-38
2022/08/29 14:58:50;;;;;;;2.78;2.10;;;13.70;56.00;;;;;;4886254;29;20236;-39
2022/08/29 15:01:21;;;;;;;2.60;2.17;;;13.70;56.00;;;;;;4896280;29;20204;-39
2022/08/29 15:03:52;;;;;;;2.70;2.40;;;13.70;56.00;;;;;;4895944;29;20217;-38
2022/08/29 15:06:24;;;;;;;2.85;2.40;;;13.70;55.90;;;;;;4896073;29;20201;-35
2022/08/29 15:08:55;;;;;;;2.80;2.22;;;13.70;55.90;;;;;;4885194;29;20205;-38
2022/08/29 15:11:26;;;;;;;2.53;2.20;;;13.70;55.90;;;;;;4866535;29;20206;-39
2022/08/29 15:13:56;;;;;;;2.63;2.05;;;13.70;55.90;;;;;;4886392;29;20216;-42
2022/08/29 15:16:27;;;;;;;3.55;2.33;;;13.70;55.90;;;;;;4896278;29;20235;-38
2022/08/29 15:18:58;;;;;;;2.22;2.03;;;13.60;55.90;;;;;;4895553;29;20661;-45
2022/08/29 15:21:30;;;;;;;2.30;2.05;;;13.60;55.90;;;;;;4895006;29;20200;-38
2022/08/29 15:24:02;;;;;;;2.85;2.10;;;13.60;55.90;;;;;;4894583;29;20224;-39
2022/08/29 15:26:33;;;;;;;3.30;2.42;;;13.60;55.90;;;;;;4894778;29;20204;-46
2022/08/29 15:29:04;;;;;;;3.15;2.22;;;13.60;55.90;;;;;;4894196;29;20859;-42
2022/08/29 15:31:35;;;;;;;2.08;1.80;;;13.60;55.90;;;;;;4894346;29;20661;-37
2022/08/29 15:34:06;;;;;;;2.75;2.13;;;13.60;55.90;;;;;;4894571;29;20220;-35
2022/08/29 15:36:39;;;;;;;2.30;1.73;;;13.60;55.90;;;;;;4894937;29;20229;-38
2022/08/29 15:39:11;;;;;;;2.90;2.20;;;13.60;55.90;;;;;;4904523;23;20309;-34